sensor_id;sensor_type;location;lat;lon;timestamp;pressure;altitude;pressure_sealevel;temperature;humidity
34124;BME280;13153;52.316;21.166;2023-04-29T00:00:02;100392.25;;;11.72;42.68
34124;BME280;13153;52.316;21.166;2023-04-29T00:02:32;100404.28;;;11.61;42.44
34124;BME280;13153;52.316;21.166;2023-04-29T00:04:58;100401.78;;;11.67;42.49
34124;BME280;13153;52.316;21.166;2023-04-29T00:07:24;100395.50;;;11.61;42.29
34124;BME280;13153;52.316;21.166;2023-04-29T00:09:49;100394.03;;;11.73;42.28
34124;BME280;13153;52.316;21.166;2023-04-29T00:12:15;100386.91;;;11.69;42.32
34124;BME280;13153;52.316;21.166;2023-04-29T00:14:41;100391.97;;;11.60;42.52
34124;BME280;13153;52.316;21.166;2023-04-29T00:17:08;100395.66;;;11.68;42.51
34124;BME280;13153;52.316;21.166;2023-04-29T00:19:34;100389.47;;;11.66;42.51
34124;BME280;13153;52.316;21.166;2023-04-29T00:22:00;100390.44;;;11.70;42.51
34124;BME280;13153;52.316;21.166;2023-04-29T00:24:26;100394.09;;;11.76;42.21
34124;BME280;13153;52.316;21.166;2023-04-29T00:26:52;100391.53;;;11.78;42.38
34124;BME280;13153;52.316;21.166;2023-04-29T00:29:18;100387.41;;;11.51;43.06
34124;BME280;13153;52.316;21.166;2023-04-29T00:31:44;100388.16;;;11.46;42.89
34124;BME280;13153;52.316;21.166;2023-04-29T00:34:10;100385.59;;;11.49;43.13
34124;BME280;13153;52.316;21.166;2023-04-29T00:36:36;100383.97;;;11.54;42.99
34124;BME280;13153;52.316;21.166;2023-04-29T00:39:02;100383.75;;;11.45;43.10
34124;BME280;13153;52.316;21.166;2023-04-29T00:41:29;100382.25;;;11.57;43.02
34124;BME280;13153;52.316;21.166;2023-04-29T00:43:56;100375.19;;;11.56;43.07
34124;BME280;13153;52.316;21.166;2023-04-29T00:46:22;100379.56;;;11.56;42.96
34124;BME280;13153;52.316;21.166;2023-04-29T00:48:48;100374.31;;;11.56;42.72
34124;BME280;13153;52.316;21.166;2023-04-29T00:51:16;100367.13;;;11.47;42.97
34124;BME280;13153;52.316;21.166;2023-04-29T00:53:43;100366.75;;;11.32;43.36
34124;BME280;13153;52.316;21.166;2023-04-29T00:56:10;100365.31;;;11.45;42.92
34124;BME280;13153;52.316;21.166;2023-04-29T00:58:36;100359.00;;;11.38;43.03
34124;BME280;13153;52.316;21.166;2023-04-29T01:01:03;100362.47;;;11.36;43.06
34124;BME280;13153;52.316;21.166;2023-04-29T01:03:30;100356.34;;;11.37;43.07
34124;BME280;13153;52.316;21.166;2023-04-29T01:06:32;100359.81;;;11.36;43.48
34124;BME280;13153;52.316;21.166;2023-04-29T01:14:47;100349.34;;;11.39;42.92
34124;BME280;13153;52.316;21.166;2023-04-29T01:17:18;100357.09;;;11.31;43.45
34124;BME280;13153;52.316;21.166;2023-04-29T01:19:53;100371.00;;;11.25;43.42
34124;BME280;13153;52.316;21.166;2023-04-29T01:22:20;100365.84;;;11.30;43.18
34124;BME280;13153;52.316;21.166;2023-04-29T01:24:47;100359.03;;;11.40;42.99
34124;BME280;13153;52.316;21.166;2023-04-29T01:27:36;100353.03;;;11.45;42.89
34124;BME280;13153;52.316;21.166;2023-04-29T01:30:40;100355.66;;;11.45;43.36
34124;BME280;13153;52.316;21.166;2023-04-29T01:36:19;100360.75;;;11.38;43.08
34124;BME280;13153;52.316;21.166;2023-04-29T01:39:28;100363.53;;;11.44;42.67
34124;BME280;13153;52.316;21.166;2023-04-29T01:42:09;100368.72;;;11.41;43.16
34124;BME280;13153;52.316;21.166;2023-04-29T01:44:38;100357.72;;;11.21;43.76
34124;BME280;13153;52.316;21.166;2023-04-29T01:47:09;100359.97;;;11.42;43.03
34124;BME280;13153;52.316;21.166;2023-04-29T01:49:38;100360.09;;;11.48;43.16
34124;BME280;13153;52.316;21.166;2023-04-29T01:52:05;100359.34;;;11.53;42.93
34124;BME280;13153;52.316;21.166;2023-04-29T01:54:31;100365.44;;;11.51;42.84
34124;BME280;13153;52.316;21.166;2023-04-29T01:57:02;100354.16;;;11.58;42.96
34124;BME280;13153;52.316;21.166;2023-04-29T01:59:27;100348.88;;;11.58;42.80
34124;BME280;13153;52.316;21.166;2023-04-29T02:01:53;100348.94;;;11.61;43.02
34124;BME280;13153;52.316;21.166;2023-04-29T02:04:21;100353.44;;;11.26;43.24
34124;BME280;13153;52.316;21.166;2023-04-29T02:06:46;100351.88;;;11.34;43.46
34124;BME280;13153;52.316;21.166;2023-04-29T02:09:12;100347.81;;;11.48;43.01
34124;BME280;13153;52.316;21.166;2023-04-29T02:11:38;100354.09;;;11.53;42.98
34124;BME280;13153;52.316;21.166;2023-04-29T02:14:04;100348.56;;;11.43;43.41
34124;BME280;13153;52.316;21.166;2023-04-29T02:16:29;100354.88;;;11.49;43.14
34124;BME280;13153;52.316;21.166;2023-04-29T02:18:55;100346.06;;;11.49;43.07
34124;BME280;13153;52.316;21.166;2023-04-29T02:21:21;100352.53;;;11.65;42.72
34124;BME280;13153;52.316;21.166;2023-04-29T02:23:47;100347.28;;;11.65;42.96
34124;BME280;13153;52.316;21.166;2023-04-29T02:26:12;100345.56;;;11.67;42.51
34124;BME280;13153;52.316;21.166;2023-04-29T02:28:40;100347.50;;;11.75;42.59
34124;BME280;13153;52.316;21.166;2023-04-29T02:31:05;100344.59;;;11.63;42.65
34124;BME280;13153;52.316;21.166;2023-04-29T02:33:32;100340.44;;;11.74;42.66
34124;BME280;13153;52.316;21.166;2023-04-29T02:35:58;100341.03;;;11.61;42.70
34124;BME280;13153;52.316;21.166;2023-04-29T02:38:24;100335.97;;;11.70;42.98
34124;BME280;13153;52.316;21.166;2023-04-29T02:40:50;100338.56;;;11.69;42.72
34124;BME280;13153;52.316;21.166;2023-04-29T02:43:16;100339.66;;;11.77;42.52
34124;BME280;13153;52.316;21.166;2023-04-29T02:45:42;100333.31;;;11.69;42.73
34124;BME280;13153;52.316;21.166;2023-04-29T02:48:08;100334.88;;;11.61;42.89
34124;BME280;13153;52.316;21.166;2023-04-29T02:50:33;100331.16;;;11.49;43.37
34124;BME280;13153;52.316;21.166;2023-04-29T02:52:59;100337.75;;;11.71;42.70
34124;BME280;13153;52.316;21.166;2023-04-29T02:55:25;100338.53;;;11.67;42.93
34124;BME280;13153;52.316;21.166;2023-04-29T02:57:51;100339.53;;;11.72;42.45
34124;BME280;13153;52.316;21.166;2023-04-29T03:00:17;100336.09;;;11.76;42.83
34124;BME280;13153;52.316;21.166;2023-04-29T03:02:43;100340.41;;;11.73;42.83
34124;BME280;13153;52.316;21.166;2023-04-29T03:05:09;100335.00;;;11.67;42.84
34124;BME280;13153;52.316;21.166;2023-04-29T03:07:36;100341.31;;;11.73;42.75
34124;BME280;13153;52.316;21.166;2023-04-29T03:10:02;100337.19;;;11.84;42.62
34124;BME280;13153;52.316;21.166;2023-04-29T03:12:27;100337.72;;;11.70;42.81
34124;BME280;13153;52.316;21.166;2023-04-29T03:14:53;100331.84;;;11.81;42.58
34124;BME280;13153;52.316;21.166;2023-04-29T03:17:19;100330.19;;;11.86;42.65
34124;BME280;13153;52.316;21.166;2023-04-29T03:19:45;100324.94;;;11.86;42.43
34124;BME280;13153;52.316;21.166;2023-04-29T03:22:10;100324.88;;;11.85;42.61
34124;BME280;13153;52.316;21.166;2023-04-29T03:24:37;100326.84;;;11.95;42.43
34124;BME280;13153;52.316;21.166;2023-04-29T03:27:03;100326.97;;;12.01;42.12
34124;BME280;13153;52.316;21.166;2023-04-29T03:29:32;100330.50;;;12.02;42.31
34124;BME280;13153;52.316;21.166;2023-04-29T03:31:58;100328.34;;;11.82;42.85
34124;BME280;13153;52.316;21.166;2023-04-29T03:34:24;100324.00;;;11.84;42.54
34124;BME280;13153;52.316;21.166;2023-04-29T03:36:50;100330.94;;;11.79;42.98
34124;BME280;13153;52.316;21.166;2023-04-29T03:39:16;100322.41;;;11.93;42.61
34124;BME280;13153;52.316;21.166;2023-04-29T03:41:42;100326.88;;;11.97;42.54
34124;BME280;13153;52.316;21.166;2023-04-29T03:44:09;100319.00;;;11.98;42.57
34124;BME280;13153;52.316;21.166;2023-04-29T03:46:34;100331.50;;;12.07;42.34
34124;BME280;13153;52.316;21.166;2023-04-29T03:49:00;100329.72;;;12.06;42.40
34124;BME280;13153;52.316;21.166;2023-04-29T03:51:26;100329.88;;;12.16;42.21
34124;BME280;13153;52.316;21.166;2023-04-29T03:53:54;100328.84;;;12.07;42.35
34124;BME280;13153;52.316;21.166;2023-04-29T03:56:24;100322.00;;;12.18;42.13
34124;BME280;13153;52.316;21.166;2023-04-29T03:58:52;100332.75;;;12.29;41.89
34124;BME280;13153;52.316;21.166;2023-04-29T04:01:18;100324.16;;;12.39;41.72
34124;BME280;13153;52.316;21.166;2023-04-29T04:03:44;100323.25;;;12.38;41.76
34124;BME280;13153;52.316;21.166;2023-04-29T04:06:10;100324.19;;;12.40;41.72
34124;BME280;13153;52.316;21.166;2023-04-29T04:08:36;100324.38;;;12.51;41.34
34124;BME280;13153;52.316;21.166;2023-04-29T04:11:02;100323.56;;;12.55;41.77
34124;BME280;13153;52.316;21.166;2023-04-29T04:13:31;100319.41;;;12.69;41.43
34124;BME280;13153;52.316;21.166;2023-04-29T04:15:57;100320.53;;;12.85;41.28
34124;BME280;13153;52.316;21.166;2023-04-29T04:18:23;100319.84;;;12.97;40.65
34124;BME280;13153;52.316;21.166;2023-04-29T04:20:49;100313.03;;;13.11;40.62
34124;BME280;13153;52.316;21.166;2023-04-29T04:23:15;100319.41;;;13.22;40.31
34124;BME280;13153;52.316;21.166;2023-04-29T04:25:48;100311.28;;;13.13;40.31
34124;BME280;13153;52.316;21.166;2023-04-29T04:28:14;100317.66;;;13.24;39.87
34124;BME280;13153;52.316;21.166;2023-04-29T04:30:40;100310.75;;;13.35;39.52
34124;BME280;13153;52.316;21.166;2023-04-29T04:33:07;100318.94;;;13.55;39.82
34124;BME280;13153;52.316;21.166;2023-04-29T04:35:33;100307.25;;;13.38;39.84
34124;BME280;13153;52.316;21.166;2023-04-29T04:37:59;100305.16;;;13.79;39.27
34124;BME280;13153;52.316;21.166;2023-04-29T04:40:24;100314.41;;;14.19;38.97
34124;BME280;13153;52.316;21.166;2023-04-29T04:42:50;100320.16;;;14.62;37.90
34124;BME280;13153;52.316;21.166;2023-04-29T04:45:16;100308.88;;;14.85;36.82
34124;BME280;13153;52.316;21.166;2023-04-29T04:47:42;100310.09;;;15.35;36.60
34124;BME280;13153;52.316;21.166;2023-04-29T04:50:08;100311.22;;;15.82;35.75
34124;BME280;13153;52.316;21.166;2023-04-29T04:52:34;100306.00;;;16.19;34.93
34124;BME280;13153;52.316;21.166;2023-04-29T04:55:00;100314.88;;;16.19;34.23
34124;BME280;13153;52.316;21.166;2023-04-29T04:57:26;100308.75;;;16.92;33.62
34124;BME280;13153;52.316;21.166;2023-04-29T04:59:51;100308.66;;;17.42;32.93
34124;BME280;13153;52.316;21.166;2023-04-29T05:02:17;100304.16;;;17.79;32.41
34124;BME280;13153;52.316;21.166;2023-04-29T05:04:43;100304.75;;;18.30;31.42
34124;BME280;13153;52.316;21.166;2023-04-29T05:07:09;100307.84;;;18.96;31.09
34124;BME280;13153;52.316;21.166;2023-04-29T05:09:35;100311.66;;;19.60;30.10
34124;BME280;13153;52.316;21.166;2023-04-29T05:12:02;100315.19;;;20.26;28.46
34124;BME280;13153;52.316;21.166;2023-04-29T05:14:28;100313.69;;;20.70;28.03
34124;BME280;13153;52.316;21.166;2023-04-29T05:17:00;100303.41;;;20.98;27.49
34124;BME280;13153;52.316;21.166;2023-04-29T05:19:26;100311.88;;;21.26;27.21
34124;BME280;13153;52.316;21.166;2023-04-29T05:21:52;100302.56;;;21.45;26.85
34124;BME280;13153;52.316;21.166;2023-04-29T05:24:18;100308.78;;;21.90;25.85
34124;BME280;13153;52.316;21.166;2023-04-29T05:26:43;100299.78;;;21.94;26.29
34124;BME280;13153;52.316;21.166;2023-04-29T05:29:10;100306.81;;;22.40;25.73
34124;BME280;13153;52.316;21.166;2023-04-29T05:31:36;100301.91;;;22.57;25.00
34124;BME280;13153;52.316;21.166;2023-04-29T05:34:04;100299.03;;;22.65;25.07
34124;BME280;13153;52.316;21.166;2023-04-29T05:36:30;100294.69;;;22.59;25.03
34124;BME280;13153;52.316;21.166;2023-04-29T05:38:56;100292.28;;;22.50;24.94
34124;BME280;13153;52.316;21.166;2023-04-29T05:41:22;100298.59;;;22.48;25.44
34124;BME280;13153;52.316;21.166;2023-04-29T05:43:50;100289.28;;;22.99;24.54
34124;BME280;13153;52.316;21.166;2023-04-29T05:46:16;100301.66;;;23.70;23.94
34124;BME280;13153;52.316;21.166;2023-04-29T05:48:42;100301.84;;;24.24;23.43
34124;BME280;13153;52.316;21.166;2023-04-29T05:51:08;100303.56;;;24.55;22.64
34124;BME280;13153;52.316;21.166;2023-04-29T05:53:34;100306.63;;;24.43;23.33
34124;BME280;13153;52.316;21.166;2023-04-29T05:56:01;100303.41;;;25.14;22.51
34124;BME280;13153;52.316;21.166;2023-04-29T05:58:30;100310.38;;;25.44;22.09
34124;BME280;13153;52.316;21.166;2023-04-29T06:00:56;100308.03;;;25.85;21.73
34124;BME280;13153;52.316;21.166;2023-04-29T06:03:22;100304.38;;;26.56;21.12
34124;BME280;13153;52.316;21.166;2023-04-29T06:05:48;100308.13;;;27.16;20.38
34124;BME280;13153;52.316;21.166;2023-04-29T06:08:14;100304.78;;;27.31;20.40
34124;BME280;13153;52.316;21.166;2023-04-29T06:10:40;100306.06;;;27.43;20.07
34124;BME280;13153;52.316;21.166;2023-04-29T06:13:06;100306.97;;;27.64;19.97
34124;BME280;13153;52.316;21.166;2023-04-29T06:15:32;100310.69;;;28.00;19.56
34124;BME280;13153;52.316;21.166;2023-04-29T06:17:57;100306.75;;;28.07;19.49
34124;BME280;13153;52.316;21.166;2023-04-29T06:20:23;100311.28;;;28.82;18.65
34124;BME280;13153;52.316;21.166;2023-04-29T06:22:49;100311.66;;;28.55;19.18
34124;BME280;13153;52.316;21.166;2023-04-29T06:25:15;100300.41;;;28.46;19.36
34124;BME280;13153;52.316;21.166;2023-04-29T06:27:41;100300.94;;;29.07;18.86
34124;BME280;13153;52.316;21.166;2023-04-29T06:30:07;100311.28;;;29.85;18.26
34124;BME280;13153;52.316;21.166;2023-04-29T06:32:33;100311.09;;;29.88;17.91
34124;BME280;13153;52.316;21.166;2023-04-29T06:34:59;100303.13;;;30.34;17.82
34124;BME280;13153;52.316;21.166;2023-04-29T06:37:26;100314.31;;;30.12;17.83
34124;BME280;13153;52.316;21.166;2023-04-29T06:39:53;100304.81;;;30.68;17.61
34124;BME280;13153;52.316;21.166;2023-04-29T06:42:19;100306.97;;;31.09;17.02
34124;BME280;13153;52.316;21.166;2023-04-29T06:44:45;100309.44;;;31.58;16.66
34124;BME280;13153;52.316;21.166;2023-04-29T06:47:10;100300.34;;;30.67;17.29
34124;BME280;13153;52.316;21.166;2023-04-29T06:49:36;100307.78;;;31.25;16.80
34124;BME280;13153;52.316;21.166;2023-04-29T06:52:02;100302.22;;;31.42;16.87
34124;BME280;13153;52.316;21.166;2023-04-29T06:54:29;100306.25;;;31.05;16.88
34124;BME280;13153;52.316;21.166;2023-04-29T06:56:55;100292.31;;;31.11;17.33
34124;BME280;13153;52.316;21.166;2023-04-29T06:59:22;100305.38;;;31.05;16.82
34124;BME280;13153;52.316;21.166;2023-04-29T07:01:48;100311.53;;;31.38;16.86
34124;BME280;13153;52.316;21.166;2023-04-29T07:04:14;100295.16;;;31.54;16.54
34124;BME280;13153;52.316;21.166;2023-04-29T07:06:40;100293.63;;;32.07;16.85
34124;BME280;13153;52.316;21.166;2023-04-29T07:09:05;100310.25;;;32.02;16.04
34124;BME280;13153;52.316;21.166;2023-04-29T07:11:31;100298.19;;;31.78;16.86
34124;BME280;13153;52.316;21.166;2023-04-29T07:13:57;100290.69;;;31.67;16.80
34124;BME280;13153;52.316;21.166;2023-04-29T07:16:23;100290.59;;;31.25;16.89
34124;BME280;13153;52.316;21.166;2023-04-29T07:18:51;100290.09;;;31.48;16.96
34124;BME280;13153;52.316;21.166;2023-04-29T07:21:17;100299.25;;;31.31;17.07
34124;BME280;13153;52.316;21.166;2023-04-29T07:23:43;100288.84;;;31.24;17.88
34124;BME280;13153;52.316;21.166;2023-04-29T07:26:17;100298.41;;;30.38;17.34
34124;BME280;13153;52.316;21.166;2023-04-29T07:28:44;100287.22;;;29.95;17.97
34124;BME280;13153;52.316;21.166;2023-04-29T07:31:10;100283.34;;;28.44;19.14
34124;BME280;13153;52.316;21.166;2023-04-29T07:33:37;100281.34;;;28.85;18.75
34124;BME280;13153;52.316;21.166;2023-04-29T07:36:03;100276.28;;;28.77;19.43
34124;BME280;13153;52.316;21.166;2023-04-29T07:38:29;100280.75;;;28.96;19.27
34124;BME280;13153;52.316;21.166;2023-04-29T07:40:55;100280.63;;;29.50;19.26
34124;BME280;13153;52.316;21.166;2023-04-29T07:43:21;100282.06;;;29.06;18.93
34124;BME280;13153;52.316;21.166;2023-04-29T07:45:47;100305.09;;;28.23;19.49
34124;BME280;13153;52.316;21.166;2023-04-29T07:48:13;100281.22;;;26.92;21.14
34124;BME280;13153;52.316;21.166;2023-04-29T07:50:39;100280.56;;;26.44;21.46
34124;BME280;13153;52.316;21.166;2023-04-29T07:53:05;100289.19;;;26.53;21.78
34124;BME280;13153;52.316;21.166;2023-04-29T07:55:31;100269.72;;;26.45;21.68
34124;BME280;13153;52.316;21.166;2023-04-29T07:57:57;100278.56;;;26.25;22.10
34124;BME280;13153;52.316;21.166;2023-04-29T08:00:24;100286.09;;;25.71;22.38
34124;BME280;13153;52.316;21.166;2023-04-29T08:02:54;100273.38;;;24.99;22.67
34124;BME280;13153;52.316;21.166;2023-04-29T08:05:21;100274.91;;;24.54;23.56
34124;BME280;13153;52.316;21.166;2023-04-29T08:07:48;100284.44;;;23.77;24.14
34124;BME280;13153;52.316;21.166;2023-04-29T08:10:16;100275.13;;;23.59;24.70
34124;BME280;13153;52.316;21.166;2023-04-29T08:12:45;100290.50;;;22.86;25.14
34124;BME280;13153;52.316;21.166;2023-04-29T08:15:11;100270.00;;;22.47;26.03
34124;BME280;13153;52.316;21.166;2023-04-29T08:17:36;100280.81;;;22.44;25.26
34124;BME280;13153;52.316;21.166;2023-04-29T08:20:03;100275.41;;;22.82;25.71
34124;BME280;13153;52.316;21.166;2023-04-29T08:22:28;100277.53;;;22.66;25.55
34124;BME280;13153;52.316;21.166;2023-04-29T08:24:55;100268.50;;;22.70;25.82
34124;BME280;13153;52.316;21.166;2023-04-29T08:27:21;100254.25;;;22.33;26.14
34124;BME280;13153;52.316;21.166;2023-04-29T08:29:46;100271.59;;;21.75;26.63
34124;BME280;13153;52.316;21.166;2023-04-29T08:32:12;100261.31;;;21.95;26.21
34124;BME280;13153;52.316;21.166;2023-04-29T08:34:38;100271.94;;;22.01;26.75
34124;BME280;13153;52.316;21.166;2023-04-29T08:37:06;100288.25;;;21.91;25.83
34124;BME280;13153;52.316;21.166;2023-04-29T08:39:32;100266.06;;;21.39;26.40
34124;BME280;13153;52.316;21.166;2023-04-29T08:41:58;100258.03;;;20.92;27.03
34124;BME280;13153;52.316;21.166;2023-04-29T08:44:25;100269.22;;;21.14;26.50
34124;BME280;13153;52.316;21.166;2023-04-29T08:46:52;100257.28;;;20.84;26.87
34124;BME280;13153;52.316;21.166;2023-04-29T08:49:18;100279.34;;;20.96;26.54
34124;BME280;13153;52.316;21.166;2023-04-29T08:51:44;100267.41;;;21.16;26.30
34124;BME280;13153;52.316;21.166;2023-04-29T08:54:12;100268.31;;;21.15;26.76
34124;BME280;13153;52.316;21.166;2023-04-29T08:56:38;100263.63;;;21.29;26.56
34124;BME280;13153;52.316;21.166;2023-04-29T08:59:08;100261.94;;;21.23;26.87
34124;BME280;13153;52.316;21.166;2023-04-29T09:01:37;100257.47;;;21.24;26.50
34124;BME280;13153;52.316;21.166;2023-04-29T09:04:23;100254.09;;;21.59;26.26
34124;BME280;13153;52.316;21.166;2023-04-29T09:06:56;100259.31;;;21.22;26.48
34124;BME280;13153;52.316;21.166;2023-04-29T09:09:27;100245.03;;;21.20;26.78
34124;BME280;13153;52.316;21.166;2023-04-29T09:11:53;100251.13;;;21.29;27.15
34124;BME280;13153;52.316;21.166;2023-04-29T09:14:22;100302.69;;;21.37;26.67
34124;BME280;13153;52.316;21.166;2023-04-29T09:16:48;100247.63;;;21.26;26.64
34124;BME280;13153;52.316;21.166;2023-04-29T09:19:32;100267.34;;;21.22;26.57
34124;BME280;13153;52.316;21.166;2023-04-29T09:22:00;100269.63;;;20.91;27.74
34124;BME280;13153;52.316;21.166;2023-04-29T09:24:29;100254.88;;;20.70;28.44
34124;BME280;13153;52.316;21.166;2023-04-29T09:26:56;100254.06;;;20.65;29.70
34124;BME280;13153;52.316;21.166;2023-04-29T09:29:22;100244.09;;;20.74;28.90
34124;BME280;13153;52.316;21.166;2023-04-29T09:31:49;100250.34;;;20.75;28.36
34124;BME280;13153;52.316;21.166;2023-04-29T09:34:15;100250.38;;;20.72;29.32
34124;BME280;13153;52.316;21.166;2023-04-29T09:36:50;100233.59;;;20.64;29.17
34124;BME280;13153;52.316;21.166;2023-04-29T09:39:22;100243.13;;;20.79;29.16
34124;BME280;13153;52.316;21.166;2023-04-29T09:49:35;100231.38;;;20.87;29.50
34124;BME280;13153;52.316;21.166;2023-04-29T09:52:08;100232.78;;;21.08;29.37
34124;BME280;13153;52.316;21.166;2023-04-29T09:54:37;100219.59;;;20.97;29.41
34124;BME280;13153;52.316;21.166;2023-04-29T09:57:04;100231.47;;;20.81;29.85
34124;BME280;13153;52.316;21.166;2023-04-29T09:59:33;100232.75;;;20.60;29.77
34124;BME280;13153;52.316;21.166;2023-04-29T10:02:16;100216.75;;;20.59;30.05
34124;BME280;13153;52.316;21.166;2023-04-29T10:04:52;100230.50;;;20.85;29.98
34124;BME280;13153;52.316;21.166;2023-04-29T10:07:19;100221.19;;;21.07;29.76
34124;BME280;13153;52.316;21.166;2023-04-29T10:09:46;100218.78;;;20.92;29.02
34124;BME280;13153;52.316;21.166;2023-04-29T10:12:18;100211.69;;;20.90;29.22
34124;BME280;13153;52.316;21.166;2023-04-29T10:17:48;100227.16;;;20.75;29.27
34124;BME280;13153;52.316;21.166;2023-04-29T10:20:22;100208.31;;;20.80;29.30
34124;BME280;13153;52.316;21.166;2023-04-29T10:22:52;100211.25;;;20.66;29.22
34124;BME280;13153;52.316;21.166;2023-04-29T10:25:21;100208.56;;;20.68;30.56
34124;BME280;13153;52.316;21.166;2023-04-29T10:27:48;100219.00;;;20.80;29.78
34124;BME280;13153;52.316;21.166;2023-04-29T10:30:17;100216.19;;;20.38;29.25
34124;BME280;13153;52.316;21.166;2023-04-29T10:32:46;100218.97;;;20.29;30.08
34124;BME280;13153;52.316;21.166;2023-04-29T10:35:15;100206.34;;;20.40;29.80
34124;BME280;13153;52.316;21.166;2023-04-29T10:37:45;100200.84;;;20.50;30.22
34124;BME280;13153;52.316;21.166;2023-04-29T10:40:51;100186.53;;;20.54;30.02
34124;BME280;13153;52.316;21.166;2023-04-29T10:43:30;100178.31;;;20.64;30.04
34124;BME280;13153;52.316;21.166;2023-04-29T10:48:45;100197.88;;;20.66;30.13
34124;BME280;13153;52.316;21.166;2023-04-29T10:51:12;100182.78;;;20.64;30.42
34124;BME280;13153;52.316;21.166;2023-04-29T10:54:08;100180.13;;;20.62;30.25
34124;BME280;13153;52.316;21.166;2023-04-29T10:56:52;100177.28;;;20.19;30.32
34124;BME280;13153;52.316;21.166;2023-04-29T11:02:09;100178.94;;;20.25;30.14
34124;BME280;13153;52.316;21.166;2023-04-29T11:05:08;100179.16;;;20.14;30.99
34124;BME280;13153;52.316;21.166;2023-04-29T11:07:34;100186.78;;;20.37;30.97
34124;BME280;13153;52.316;21.166;2023-04-29T11:10:02;100162.41;;;20.57;30.89
34124;BME280;13153;52.316;21.166;2023-04-29T11:12:27;100160.06;;;20.38;30.41
34124;BME280;13153;52.316;21.166;2023-04-29T11:14:56;100157.53;;;20.28;30.01
34124;BME280;13153;52.316;21.166;2023-04-29T11:17:35;100156.13;;;20.07;30.63
34124;BME280;13153;52.316;21.166;2023-04-29T11:20:02;100152.50;;;20.11;30.16
34124;BME280;13153;52.316;21.166;2023-04-29T11:22:29;100183.53;;;20.18;30.53
34124;BME280;13153;52.316;21.166;2023-04-29T11:25:05;100147.56;;;20.37;30.47
34124;BME280;13153;52.316;21.166;2023-04-29T11:27:36;100154.41;;;20.55;29.73
34124;BME280;13153;52.316;21.166;2023-04-29T11:30:05;100157.06;;;20.57;30.15
34124;BME280;13153;52.316;21.166;2023-04-29T11:32:37;100141.03;;;20.57;30.27
34124;BME280;13153;52.316;21.166;2023-04-29T11:37:34;100155.00;;;20.72;30.47
34124;BME280;13153;52.316;21.166;2023-04-29T11:40:00;100146.25;;;20.63;30.84
34124;BME280;13153;52.316;21.166;2023-04-29T11:42:26;100174.75;;;20.65;30.17
34124;BME280;13153;52.316;21.166;2023-04-29T11:44:56;100145.88;;;20.81;29.83
34124;BME280;13153;52.316;21.166;2023-04-29T11:47:29;100152.16;;;20.80;29.99
34124;BME280;13153;52.316;21.166;2023-04-29T11:50:06;100150.41;;;20.79;30.26
34124;BME280;13153;52.316;21.166;2023-04-29T11:52:36;100141.53;;;20.77;30.54
34124;BME280;13153;52.316;21.166;2023-04-29T11:55:03;100140.25;;;20.96;31.06
34124;BME280;13153;52.316;21.166;2023-04-29T11:57:30;100129.66;;;20.90;30.04
34124;BME280;13153;52.316;21.166;2023-04-29T11:59:59;100126.06;;;20.93;30.79
34124;BME280;13153;52.316;21.166;2023-04-29T12:02:33;100125.75;;;21.08;30.76
34124;BME280;13153;52.316;21.166;2023-04-29T12:05:04;100124.16;;;20.98;30.55
34124;BME280;13153;52.316;21.166;2023-04-29T12:07:30;100140.69;;;20.75;30.22
34124;BME280;13153;52.316;21.166;2023-04-29T12:09:56;100124.59;;;20.78;30.13
34124;BME280;13153;52.316;21.166;2023-04-29T12:12:22;100125.84;;;20.59;30.18
34124;BME280;13153;52.316;21.166;2023-04-29T12:14:49;100120.94;;;20.81;30.13
34124;BME280;13153;52.316;21.166;2023-04-29T12:17:16;100107.47;;;20.85;31.07
34124;BME280;13153;52.316;21.166;2023-04-29T12:19:42;100121.25;;;21.10;30.91
34124;BME280;13153;52.316;21.166;2023-04-29T12:22:09;100123.19;;;21.02;30.09
34124;BME280;13153;52.316;21.166;2023-04-29T12:24:36;100111.66;;;20.98;29.98
34124;BME280;13153;52.316;21.166;2023-04-29T12:27:06;100103.63;;;21.00;29.96
34124;BME280;13153;52.316;21.166;2023-04-29T12:29:32;100108.78;;;21.09;30.26
34124;BME280;13153;52.316;21.166;2023-04-29T12:31:59;100099.03;;;21.06;29.72
34124;BME280;13153;52.316;21.166;2023-04-29T12:34:29;100106.13;;;21.07;30.31
34124;BME280;13153;52.316;21.166;2023-04-29T12:36:58;100094.75;;;20.98;30.37
34124;BME280;13153;52.316;21.166;2023-04-29T12:39:29;100105.88;;;21.20;30.04
34124;BME280;13153;52.316;21.166;2023-04-29T12:41:59;100106.28;;;21.43;30.15
34124;BME280;13153;52.316;21.166;2023-04-29T12:44:25;100098.03;;;21.52;29.52
34124;BME280;13153;52.316;21.166;2023-04-29T12:46:51;100107.06;;;21.48;29.36
34124;BME280;13153;52.316;21.166;2023-04-29T12:49:18;100089.91;;;21.57;29.11
34124;BME280;13153;52.316;21.166;2023-04-29T12:51:43;100098.03;;;21.52;29.22
34124;BME280;13153;52.316;21.166;2023-04-29T12:54:10;100096.00;;;21.63;30.06
34124;BME280;13153;52.316;21.166;2023-04-29T12:56:37;100086.38;;;21.55;29.33
34124;BME280;13153;52.316;21.166;2023-04-29T12:59:10;100092.06;;;21.39;29.79
34124;BME280;13153;52.316;21.166;2023-04-29T13:01:37;100091.06;;;21.45;29.57
34124;BME280;13153;52.316;21.166;2023-04-29T13:04:04;100096.53;;;21.39;29.57
34124;BME280;13153;52.316;21.166;2023-04-29T13:06:34;100083.25;;;21.36;29.71
34124;BME280;13153;52.316;21.166;2023-04-29T13:09:07;100084.69;;;21.09;30.30
34124;BME280;13153;52.316;21.166;2023-04-29T13:11:39;100083.63;;;21.18;29.98